Latest METARs, TAFs and NOTAMs for MYNN


---------------------------------------------------------------------------
	(OBSERVATIONS)
MYNN 110700Z 35006KT 9999 SCT030 20/12 A3016=
MYNN 110600Z 34004KT 9999 SCT030 20/12 A3017=
MYNN 110500Z 34005KT 9999 SCT030 20/12 A3019=
---------------------------------------------------------------------------
	(TERMINAL AREA FORECAST)
MYNN 110400Z 1106/1206 36010KT 9999 SCT030=
---------------------------------------------------------------------------
	(NOTAMS)


MYNN A0068/13 VOR Y RWY 14 FEEDER RTE FM MAJUR TO MUNIE NOT AVBL
    VOR Y RWY 14 FEEDER RTE FM MELON TO MUNIE NOT AVBL. SFC -
    UNL, 19 APR 19:55 2013 UNTIL PERM. CREATED: 19 APR 19:51
    2013

MYNN A0069/13 VOR Y RWY 09 FEEDER RTE FM MAJUR TO MUSSE NOT AVBL
    REMOVE PROCEDURE NOTE 'RADAR REQUIRED' FM APP CHART. SFC
    - UNL, 19 APR 19:55 2013 UNTIL PERM. CREATED: 19 APR 19:52
    2013

MYNN A0070/13 VOR Y RWY 32 FEEDER RTE FM PRUNE TO WELKS NOT AVBL
    REMOVE PROCEDURE NOTE 'RADAR REQUIRED' FM APP CHART. SFC
    - UNL, 19 APR 19:55 2013 UNTIL PERM. CREATED: 19 APR 19:54
    2013

MYNN A0227/17 REF THE BAHAMAS AIP GEN 3.3 AIR TRAFFIC SERVICES
    AERODROME FLIGHT INFORMATION SERVICE (AFIS) WILL BE DEPICTED
    AS AFIS/ADVISORY SERVICE (AERODROME FLIGHT INFORMATION SERVICE
    / ADVISORY SERVICE) CHANGES AND UPDATES TO BE MADE IN THE
    AIP. 19 SEP 21:00 2017 UNTIL PERM. CREATED: 20 SEP 13:33
    2017

MYNN A0274/17 ATS WILL ONLY ACCEPT NON-CLOSURE PLN'S TO MYSM
    MYCA MYCX MYCH MYCB MYAP MYCI MYCP MYMM MYRP MYLD MYLS DUE
    TO LACK OF COM. 02 NOV 16:30 2017 UNTIL 02 FEB 16:30 2018.
    CREATED: 02 NOV 16:08 2017

MYNN A0314/17 MEN AND EQPT TRENCHING ALONG RWY 14/32 IN GRASSY
    AREA WILL REMAIN CLEAR OF RWY AIRMEN ARE ADZ EXER CTN. DAILY
    1400-2000UTC, 11 DEC 14:00 2017 UNTIL 16 DEC 20:00 2017.
    CREATED: 30 NOV 20:21 2017

MYNN A0315/17 CHECKLIST (A) SERIES YEAR=2010 0277 YEAR=2013 0068
    0069 0070 YEAR=2015 0108 YEAR=2016 0266 0291 0316 YEAR=2017
    0226 0227 0259 0264 0265 0266 0267 0268 0269 0270 0271 0272
    0274 0275 0276 0277 0278 0297 0305 0310 0311 0312 0313 0314
    LATEST PUBLICATIONS SUPPLEMENT 01/2O17 02/2017 AIP AMDT 01/16
    EFFECTIVE MAY 26, 2016 AIC 03/16. 01 DEC 16:30 2017 UNTIL
    29 DEC 23:59 2017. CREATED: 01 DEC 15:59 2017

MYNN A0316/16 WIE THE DEPARTMENT OF CIVIL AVIATION BANS ALL SAMSUNG
    GALAXY NOTE 7 PHONES FROM ACFT TRAVELLING IN THE BAHAMAS.
    DEVICES MAY NOT BE TRANSPORTED BY PASSENGERS OR CREW ON THEIR
    PERSON, IN CARRY-ON BAGGAGE, OR IN CHECKED BAGGAGE ON FLIGHTS
    TO, FROM, OR WITHIN THE COMMONWEALTH OF THE BAHAMAS AND CANNOT
    BE SHIPPED AS AIR CARGO. 20 OCT 15:30 2016 UNTIL PERM. CREATED:
    20 OCT 15:12 2016

MYNN B0046/17 CHECKLIST (B) SERIES YEAR=2016 0024 0028 YEAR=2017
    0043 0044 LATEST PUBLICATIONS SUPPLEMENT 01/2O17 02/2017
    AIP AMDT 01/16 EFFECTIVE MAY 26, 2016 AIC 03/16. 01 DEC 16:30
    2017 UNTIL 29 DEC 23:59 2017. CREATED: 01 DEC 15:59 2017

---------------------------------------------------------------------------